sensor_id;sensor_type;location;lat;lon;timestamp;temperature;humidity
15083;DHT22;7640;53.116;6.878;2023-05-07T00:00:06;13.00;99.90
15083;DHT22;7640;53.116;6.878;2023-05-07T00:02:36;13.00;99.90
15083;DHT22;7640;53.116;6.878;2023-05-07T00:05:06;13.00;99.90
15083;DHT22;7640;53.116;6.878;2023-05-07T00:07:37;13.00;99.90
15083;DHT22;7640;53.116;6.878;2023-05-07T00:10:09;13.00;99.90
15083;DHT22;7640;53.116;6.878;2023-05-07T00:12:40;13.00;99.90
15083;DHT22;7640;53.116;6.878;2023-05-07T00:15:09;13.00;99.90
15083;DHT22;7640;53.116;6.878;2023-05-07T00:17:38;13.00;99.90
15083;DHT22;7640;53.116;6.878;2023-05-07T00:20:08;13.00;99.90
15083;DHT22;7640;53.116;6.878;2023-05-07T00:22:37;13.00;99.90
15083;DHT22;7640;53.116;6.878;2023-05-07T00:25:07;13.00;99.90
15083;DHT22;7640;53.116;6.878;2023-05-07T00:27:37;13.00;99.90
15083;DHT22;7640;53.116;6.878;2023-05-07T00:30:06;13.00;99.90
15083;DHT22;7640;53.116;6.878;2023-05-07T00:32:36;13.00;99.90
15083;DHT22;7640;53.116;6.878;2023-05-07T00:35:06;13.00;99.90
15083;DHT22;7640;53.116;6.878;2023-05-07T00:37:35;13.00;99.90
15083;DHT22;7640;53.116;6.878;2023-05-07T00:40:05;13.00;99.90
15083;DHT22;7640;53.116;6.878;2023-05-07T00:42:37;13.00;99.90
15083;DHT22;7640;53.116;6.878;2023-05-07T00:45:07;13.00;99.90
15083;DHT22;7640;53.116;6.878;2023-05-07T00:47:35;13.00;99.90
15083;DHT22;7640;53.116;6.878;2023-05-07T00:50:05;13.00;99.90
15083;DHT22;7640;53.116;6.878;2023-05-07T00:52:37;13.00;99.90
15083;DHT22;7640;53.116;6.878;2023-05-07T00:55:08;13.00;99.90
15083;DHT22;7640;53.116;6.878;2023-05-07T00:57:40;13.00;99.90
15083;DHT22;7640;53.116;6.878;2023-05-07T01:00:10;13.00;99.90
15083;DHT22;7640;53.116;6.878;2023-05-07T01:02:40;13.00;99.90
15083;DHT22;7640;53.116;6.878;2023-05-07T01:05:12;13.00;99.90
15083;DHT22;7640;53.116;6.878;2023-05-07T01:07:43;13.00;99.90
15083;DHT22;7640;53.116;6.878;2023-05-07T01:10:14;13.00;99.90
15083;DHT22;7640;53.116;6.878;2023-05-07T01:12:44;13.00;99.90
15083;DHT22;7640;53.116;6.878;2023-05-07T01:15:14;12.90;99.90
15083;DHT22;7640;53.116;6.878;2023-05-07T01:17:43;12.90;99.90
15083;DHT22;7640;53.116;6.878;2023-05-07T01:20:12;12.90;99.90
15083;DHT22;7640;53.116;6.878;2023-05-07T01:22:44;13.00;99.90
15083;DHT22;7640;53.116;6.878;2023-05-07T01:25:13;12.80;99.90
15083;DHT22;7640;53.116;6.878;2023-05-07T01:27:43;12.80;99.90
15083;DHT22;7640;53.116;6.878;2023-05-07T01:30:11;12.80;99.90
15083;DHT22;7640;53.116;6.878;2023-05-07T01:32:43;12.80;99.90
15083;DHT22;7640;53.116;6.878;2023-05-07T01:35:19;12.80;99.90
15083;DHT22;7640;53.116;6.878;2023-05-07T01:37:53;12.80;99.90
15083;DHT22;7640;53.116;6.878;2023-05-07T01:40:23;12.80;99.90
15083;DHT22;7640;53.116;6.878;2023-05-07T01:42:54;12.80;99.90
15083;DHT22;7640;53.116;6.878;2023-05-07T01:45:25;12.70;99.90
15083;DHT22;7640;53.116;6.878;2023-05-07T01:47:58;12.70;99.90
15083;DHT22;7640;53.116;6.878;2023-05-07T01:50:27;12.70;99.90
15083;DHT22;7640;53.116;6.878;2023-05-07T01:52:57;12.70;99.90
15083;DHT22;7640;53.116;6.878;2023-05-07T01:55:26;12.70;99.90
15083;DHT22;7640;53.116;6.878;2023-05-07T01:57:55;12.70;99.90
15083;DHT22;7640;53.116;6.878;2023-05-07T02:00:25;12.60;99.90
15083;DHT22;7640;53.116;6.878;2023-05-07T02:02:58;12.60;99.90
15083;DHT22;7640;53.116;6.878;2023-05-07T02:05:27;12.60;99.90
15083;DHT22;7640;53.116;6.878;2023-05-07T02:07:57;12.60;99.90
15083;DHT22;7640;53.116;6.878;2023-05-07T02:10:26;12.60;99.90
15083;DHT22;7640;53.116;6.878;2023-05-07T02:12:54;12.60;99.90
15083;DHT22;7640;53.116;6.878;2023-05-07T02:15:23;12.50;99.90
15083;DHT22;7640;53.116;6.878;2023-05-07T02:17:59;12.50;99.90
15083;DHT22;7640;53.116;6.878;2023-05-07T02:20:28;12.50;99.90
15083;DHT22;7640;53.116;6.878;2023-05-07T02:22:58;12.50;99.90
15083;DHT22;7640;53.116;6.878;2023-05-07T02:25:27;12.50;99.90
15083;DHT22;7640;53.116;6.878;2023-05-07T02:27:56;12.50;99.90
15083;DHT22;7640;53.116;6.878;2023-05-07T02:30:25;12.50;99.90
15083;DHT22;7640;53.116;6.878;2023-05-07T02:32:53;12.50;99.90
15083;DHT22;7640;53.116;6.878;2023-05-07T02:35:24;12.40;99.90
15083;DHT22;7640;53.116;6.878;2023-05-07T02:37:53;12.40;99.90
15083;DHT22;7640;53.116;6.878;2023-05-07T02:40:23;12.40;99.90
15083;DHT22;7640;53.116;6.878;2023-05-07T02:42:52;12.40;99.90
15083;DHT22;7640;53.116;6.878;2023-05-07T02:45:20;12.40;99.90
15083;DHT22;7640;53.116;6.878;2023-05-07T02:47:49;12.50;99.90
15083;DHT22;7640;53.116;6.878;2023-05-07T02:50:19;12.50;99.90
15083;DHT22;7640;53.116;6.878;2023-05-07T02:52:54;12.50;99.90
15083;DHT22;7640;53.116;6.878;2023-05-07T02:55:25;12.50;99.90
15083;DHT22;7640;53.116;6.878;2023-05-07T02:57:53;12.40;99.90
15083;DHT22;7640;53.116;6.878;2023-05-07T03:00:22;12.40;99.90
15083;DHT22;7640;53.116;6.878;2023-05-07T03:02:51;12.40;99.90
15083;DHT22;7640;53.116;6.878;2023-05-07T03:05:21;12.40;99.90
15083;DHT22;7640;53.116;6.878;2023-05-07T03:07:51;12.40;99.90
15083;DHT22;7640;53.116;6.878;2023-05-07T03:10:20;12.40;99.90
15083;DHT22;7640;53.116;6.878;2023-05-07T03:12:50;12.40;99.90
15083;DHT22;7640;53.116;6.878;2023-05-07T03:15:19;12.40;99.90
15083;DHT22;7640;53.116;6.878;2023-05-07T03:17:48;12.30;99.90
15083;DHT22;7640;53.116;6.878;2023-05-07T03:20:17;12.30;99.90
15083;DHT22;7640;53.116;6.878;2023-05-07T03:22:45;12.30;99.90
15083;DHT22;7640;53.116;6.878;2023-05-07T03:25:14;12.30;99.90
15083;DHT22;7640;53.116;6.878;2023-05-07T03:27:42;12.30;99.90
15083;DHT22;7640;53.116;6.878;2023-05-07T03:30:13;12.30;99.90
15083;DHT22;7640;53.116;6.878;2023-05-07T03:32:41;12.30;99.90
15083;DHT22;7640;53.116;6.878;2023-05-07T03:35:10;12.20;99.90
15083;DHT22;7640;53.116;6.878;2023-05-07T03:37:39;12.20;99.90
15083;DHT22;7640;53.116;6.878;2023-05-07T03:40:09;12.20;99.90
15083;DHT22;7640;53.116;6.878;2023-05-07T03:42:40;12.20;99.90
15083;DHT22;7640;53.116;6.878;2023-05-07T03:45:09;12.20;99.90
15083;DHT22;7640;53.116;6.878;2023-05-07T03:47:39;12.20;99.90
15083;DHT22;7640;53.116;6.878;2023-05-07T03:50:09;12.20;99.90
15083;DHT22;7640;53.116;6.878;2023-05-07T03:52:38;12.20;99.90
15083;DHT22;7640;53.116;6.878;2023-05-07T03:55:08;12.20;99.90
15083;DHT22;7640;53.116;6.878;2023-05-07T03:57:37;12.20;99.90
15083;DHT22;7640;53.116;6.878;2023-05-07T04:00:06;12.10;99.90
15083;DHT22;7640;53.116;6.878;2023-05-07T04:02:36;12.10;99.90
15083;DHT22;7640;53.116;6.878;2023-05-07T04:05:07;12.10;99.90
15083;DHT22;7640;53.116;6.878;2023-05-07T04:07:36;12.10;99.90
15083;DHT22;7640;53.116;6.878;2023-05-07T04:10:05;12.10;99.90
15083;DHT22;7640;53.116;6.878;2023-05-07T04:12:34;12.10;99.90
15083;DHT22;7640;53.116;6.878;2023-05-07T04:15:03;12.10;99.90
15083;DHT22;7640;53.116;6.878;2023-05-07T04:17:32;12.00;99.90
15083;DHT22;7640;53.116;6.878;2023-05-07T04:20:00;12.00;99.90
15083;DHT22;7640;53.116;6.878;2023-05-07T04:22:30;12.00;99.90
15083;DHT22;7640;53.116;6.878;2023-05-07T04:24:59;12.00;99.90
15083;DHT22;7640;53.116;6.878;2023-05-07T04:27:28;12.00;99.90
15083;DHT22;7640;53.116;6.878;2023-05-07T04:29:56;12.00;99.90
15083;DHT22;7640;53.116;6.878;2023-05-07T04:32:25;11.90;99.90
15083;DHT22;7640;53.116;6.878;2023-05-07T04:34:56;11.90;99.90
15083;DHT22;7640;53.116;6.878;2023-05-07T04:37:25;11.90;99.90
15083;DHT22;7640;53.116;6.878;2023-05-07T04:39:55;11.90;99.90
15083;DHT22;7640;53.116;6.878;2023-05-07T04:42:25;11.90;99.90
15083;DHT22;7640;53.116;6.878;2023-05-07T04:44:54;11.90;99.90
15083;DHT22;7640;53.116;6.878;2023-05-07T04:47:23;11.90;99.90
15083;DHT22;7640;53.116;6.878;2023-05-07T04:49:52;11.90;99.90
15083;DHT22;7640;53.116;6.878;2023-05-07T04:52:21;11.90;99.90
15083;DHT22;7640;53.116;6.878;2023-05-07T04:54:53;11.90;99.90
15083;DHT22;7640;53.116;6.878;2023-05-07T04:57:23;11.90;99.90
15083;DHT22;7640;53.116;6.878;2023-05-07T04:59:52;11.90;99.90
15083;DHT22;7640;53.116;6.878;2023-05-07T05:02:20;12.00;99.90
15083;DHT22;7640;53.116;6.878;2023-05-07T05:04:50;12.00;99.90
15083;DHT22;7640;53.116;6.878;2023-05-07T05:07:22;12.00;99.90
15083;DHT22;7640;53.116;6.878;2023-05-07T05:09:52;12.00;99.90
15083;DHT22;7640;53.116;6.878;2023-05-07T05:12:22;12.00;99.90
15083;DHT22;7640;53.116;6.878;2023-05-07T05:14:51;12.00;99.90
15083;DHT22;7640;53.116;6.878;2023-05-07T05:17:21;12.00;99.90
15083;DHT22;7640;53.116;6.878;2023-05-07T05:19:51;12.10;99.90
15083;DHT22;7640;53.116;6.878;2023-05-07T05:22:21;12.10;99.90
15083;DHT22;7640;53.116;6.878;2023-05-07T05:24:49;12.10;99.90
15083;DHT22;7640;53.116;6.878;2023-05-07T05:27:18;12.10;99.90
15083;DHT22;7640;53.116;6.878;2023-05-07T05:29:48;12.10;99.90
15083;DHT22;7640;53.116;6.878;2023-05-07T05:32:16;12.20;99.90
15083;DHT22;7640;53.116;6.878;2023-05-07T05:34:45;12.20;99.90
15083;DHT22;7640;53.116;6.878;2023-05-07T05:37:14;12.20;99.90
15083;DHT22;7640;53.116;6.878;2023-05-07T05:39:42;12.20;99.90
15083;DHT22;7640;53.116;6.878;2023-05-07T05:42:11;12.20;99.90
15083;DHT22;7640;53.116;6.878;2023-05-07T05:44:39;12.30;99.90
15083;DHT22;7640;53.116;6.878;2023-05-07T05:47:09;12.30;99.90
15083;DHT22;7640;53.116;6.878;2023-05-07T05:49:38;12.40;99.90
15083;DHT22;7640;53.116;6.878;2023-05-07T05:52:06;12.40;99.90
15083;DHT22;7640;53.116;6.878;2023-05-07T05:54:37;12.40;99.90
15083;DHT22;7640;53.116;6.878;2023-05-07T05:57:05;12.40;99.90
15083;DHT22;7640;53.116;6.878;2023-05-07T05:59:34;12.40;99.90
15083;DHT22;7640;53.116;6.878;2023-05-07T06:02:06;12.40;99.90
15083;DHT22;7640;53.116;6.878;2023-05-07T06:04:36;12.50;99.90
15083;DHT22;7640;53.116;6.878;2023-05-07T06:07:07;12.50;99.90
15083;DHT22;7640;53.116;6.878;2023-05-07T06:09:37;12.50;99.90
15083;DHT22;7640;53.116;6.878;2023-05-07T06:12:06;12.50;99.90
15083;DHT22;7640;53.116;6.878;2023-05-07T06:14:34;12.60;99.90
15083;DHT22;7640;53.116;6.878;2023-05-07T06:17:03;12.50;99.90
15083;DHT22;7640;53.116;6.878;2023-05-07T06:19:32;12.50;99.90
15083;DHT22;7640;53.116;6.878;2023-05-07T06:22:03;12.60;99.90
15083;DHT22;7640;53.116;6.878;2023-05-07T06:24:33;12.50;99.90
15083;DHT22;7640;53.116;6.878;2023-05-07T06:27:01;12.60;99.90
15083;DHT22;7640;53.116;6.878;2023-05-07T06:29:30;12.60;99.90
15083;DHT22;7640;53.116;6.878;2023-05-07T06:32:06;12.60;99.90
15083;DHT22;7640;53.116;6.878;2023-05-07T06:34:36;12.60;99.90
15083;DHT22;7640;53.116;6.878;2023-05-07T06:37:06;12.60;99.90
15083;DHT22;7640;53.116;6.878;2023-05-07T06:39:35;12.50;99.90
15083;DHT22;7640;53.116;6.878;2023-05-07T06:42:04;12.50;99.90
15083;DHT22;7640;53.116;6.878;2023-05-07T06:44:33;12.50;99.90
15083;DHT22;7640;53.116;6.878;2023-05-07T06:47:01;12.50;99.90
15083;DHT22;7640;53.116;6.878;2023-05-07T06:49:30;12.60;99.90
15083;DHT22;7640;53.116;6.878;2023-05-07T06:51:59;12.60;99.90
15083;DHT22;7640;53.116;6.878;2023-05-07T06:54:29;12.60;99.90
15083;DHT22;7640;53.116;6.878;2023-05-07T06:56:58;12.60;99.90
15083;DHT22;7640;53.116;6.878;2023-05-07T06:59:27;12.60;99.90
15083;DHT22;7640;53.116;6.878;2023-05-07T07:01:55;12.70;99.90
15083;DHT22;7640;53.116;6.878;2023-05-07T07:04:25;12.70;99.90
15083;DHT22;7640;53.116;6.878;2023-05-07T07:06:55;12.80;99.90
15083;DHT22;7640;53.116;6.878;2023-05-07T07:09:24;12.80;99.90
15083;DHT22;7640;53.116;6.878;2023-05-07T07:11:55;12.90;99.90
15083;DHT22;7640;53.116;6.878;2023-05-07T07:14:23;12.90;99.90
15083;DHT22;7640;53.116;6.878;2023-05-07T07:16:53;13.00;99.90
15083;DHT22;7640;53.116;6.878;2023-05-07T07:19:21;13.00;99.90
15083;DHT22;7640;53.116;6.878;2023-05-07T07:21:50;13.00;99.90
15083;DHT22;7640;53.116;6.878;2023-05-07T07:24:19;13.10;99.90
15083;DHT22;7640;53.116;6.878;2023-05-07T07:26:50;13.20;99.90
15083;DHT22;7640;53.116;6.878;2023-05-07T07:29:20;13.20;99.90
15083;DHT22;7640;53.116;6.878;2023-05-07T07:31:49;13.30;99.90
15083;DHT22;7640;53.116;6.878;2023-05-07T07:34:18;13.30;99.90
15083;DHT22;7640;53.116;6.878;2023-05-07T07:36:53;13.30;99.90
15083;DHT22;7640;53.116;6.878;2023-05-07T07:39:22;13.40;99.90
15083;DHT22;7640;53.116;6.878;2023-05-07T07:41:53;13.40;99.90
15083;DHT22;7640;53.116;6.878;2023-05-07T07:44:24;13.40;99.90
15083;DHT22;7640;53.116;6.878;2023-05-07T07:46:53;13.50;99.90
15083;DHT22;7640;53.116;6.878;2023-05-07T07:49:22;13.50;99.90
15083;DHT22;7640;53.116;6.878;2023-05-07T07:51:51;13.50;99.90
15083;DHT22;7640;53.116;6.878;2023-05-07T07:54:23;13.60;99.90
15083;DHT22;7640;53.116;6.878;2023-05-07T07:56:52;13.60;99.90
15083;DHT22;7640;53.116;6.878;2023-05-07T07:59:20;13.60;99.90
15083;DHT22;7640;53.116;6.878;2023-05-07T08:01:50;13.60;99.90
15083;DHT22;7640;53.116;6.878;2023-05-07T08:04:22;13.70;99.90
15083;DHT22;7640;53.116;6.878;2023-05-07T08:06:51;13.70;99.90
15083;DHT22;7640;53.116;6.878;2023-05-07T08:09:21;13.70;99.90
15083;DHT22;7640;53.116;6.878;2023-05-07T08:11:54;13.70;99.90
15083;DHT22;7640;53.116;6.878;2023-05-07T08:14:23;13.70;99.90
15083;DHT22;7640;53.116;6.878;2023-05-07T08:16:54;13.70;99.90
15083;DHT22;7640;53.116;6.878;2023-05-07T08:19:23;13.80;99.90
15083;DHT22;7640;53.116;6.878;2023-05-07T08:21:52;13.90;99.90
15083;DHT22;7640;53.116;6.878;2023-05-07T08:24:21;14.00;99.90
15083;DHT22;7640;53.116;6.878;2023-05-07T08:26:50;14.10;99.90
15083;DHT22;7640;53.116;6.878;2023-05-07T08:29:19;14.20;99.90
15083;DHT22;7640;53.116;6.878;2023-05-07T08:31:48;14.30;99.90
15083;DHT22;7640;53.116;6.878;2023-05-07T08:34:18;14.40;99.90
15083;DHT22;7640;53.116;6.878;2023-05-07T08:36:50;14.50;99.90
15083;DHT22;7640;53.116;6.878;2023-05-07T08:39:19;14.60;99.90
15083;DHT22;7640;53.116;6.878;2023-05-07T08:41:51;14.70;99.90
15083;DHT22;7640;53.116;6.878;2023-05-07T08:44:26;14.80;99.90
15083;DHT22;7640;53.116;6.878;2023-05-07T08:46:56;14.90;99.90
15083;DHT22;7640;53.116;6.878;2023-05-07T08:49:29;14.90;99.90
15083;DHT22;7640;53.116;6.878;2023-05-07T08:51:58;15.00;99.90
15083;DHT22;7640;53.116;6.878;2023-05-07T08:54:27;15.10;99.90
15083;DHT22;7640;53.116;6.878;2023-05-07T08:56:56;15.20;99.90
15083;DHT22;7640;53.116;6.878;2023-05-07T08:59:25;15.20;99.90
15083;DHT22;7640;53.116;6.878;2023-05-07T09:01:55;15.20;99.90
15083;DHT22;7640;53.116;6.878;2023-05-07T09:04:24;15.20;99.90
15083;DHT22;7640;53.116;6.878;2023-05-07T09:06:55;15.20;99.90
15083;DHT22;7640;53.116;6.878;2023-05-07T09:09:32;15.20;99.90
15083;DHT22;7640;53.116;6.878;2023-05-07T09:12:01;15.20;99.90
15083;DHT22;7640;53.116;6.878;2023-05-07T09:14:30;15.20;99.90
15083;DHT22;7640;53.116;6.878;2023-05-07T09:16:59;15.20;99.90
15083;DHT22;7640;53.116;6.878;2023-05-07T09:19:28;15.20;99.90
15083;DHT22;7640;53.116;6.878;2023-05-07T09:22:03;15.30;99.90
15083;DHT22;7640;53.116;6.878;2023-05-07T09:24:32;15.40;99.90
15083;DHT22;7640;53.116;6.878;2023-05-07T09:27:03;15.40;99.90
15083;DHT22;7640;53.116;6.878;2023-05-07T09:29:32;15.50;99.90
15083;DHT22;7640;53.116;6.878;2023-05-07T09:32:03;15.60;99.90
15083;DHT22;7640;53.116;6.878;2023-05-07T09:34:32;15.70;99.90
15083;DHT22;7640;53.116;6.878;2023-05-07T09:37:04;15.90;99.90
15083;DHT22;7640;53.116;6.878;2023-05-07T09:39:41;16.00;99.90
15083;DHT22;7640;53.116;6.878;2023-05-07T09:42:11;16.20;99.90
15083;DHT22;7640;53.116;6.878;2023-05-07T09:44:43;16.20;99.90
15083;DHT22;7640;53.116;6.878;2023-05-07T09:47:18;16.30;99.90
15083;DHT22;7640;53.116;6.878;2023-05-07T09:49:54;16.40;99.90
15083;DHT22;7640;53.116;6.878;2023-05-07T09:52:26;16.40;99.90
15083;DHT22;7640;53.116;6.878;2023-05-07T09:55:00;16.50;99.90
15083;DHT22;7640;53.116;6.878;2023-05-07T09:57:31;16.70;99.90
15083;DHT22;7640;53.116;6.878;2023-05-07T10:00:03;16.80;99.90
15083;DHT22;7640;53.116;6.878;2023-05-07T10:02:34;17.00;99.90
15083;DHT22;7640;53.116;6.878;2023-05-07T10:05:04;17.20;99.90
15083;DHT22;7640;53.116;6.878;2023-05-07T10:07:36;17.50;99.90
15083;DHT22;7640;53.116;6.878;2023-05-07T10:10:06;17.60;99.90
15083;DHT22;7640;53.116;6.878;2023-05-07T10:12:35;17.70;99.90
15083;DHT22;7640;53.116;6.878;2023-05-07T10:15:07;17.80;99.90
15083;DHT22;7640;53.116;6.878;2023-05-07T10:17:38;17.90;99.90
15083;DHT22;7640;53.116;6.878;2023-05-07T10:20:08;18.00;99.90
15083;DHT22;7640;53.116;6.878;2023-05-07T10:22:41;18.00;99.90
15083;DHT22;7640;53.116;6.878;2023-05-07T10:25:20;18.10;99.90
15083;DHT22;7640;53.116;6.878;2023-05-07T10:27:54;18.10;99.90
15083;DHT22;7640;53.116;6.878;2023-05-07T10:30:31;18.20;99.90
15083;DHT22;7640;53.116;6.878;2023-05-07T10:33:10;18.20;99.90
15083;DHT22;7640;53.116;6.878;2023-05-07T10:35:42;18.30;99.90
15083;DHT22;7640;53.116;6.878;2023-05-07T10:38:13;18.50;99.90
15083;DHT22;7640;53.116;6.878;2023-05-07T10:40:42;18.80;99.90
15083;DHT22;7640;53.116;6.878;2023-05-07T10:43:14;19.00;99.90
15083;DHT22;7640;53.116;6.878;2023-05-07T10:45:42;19.00;99.90
15083;DHT22;7640;53.116;6.878;2023-05-07T10:48:15;19.10;99.90
15083;DHT22;7640;53.116;6.878;2023-05-07T10:51:20;19.10;99.90
15083;DHT22;7640;53.116;6.878;2023-05-07T10:54:18;19.10;99.90
15083;DHT22;7640;53.116;6.878;2023-05-07T10:56:51;19.20;99.90
15083;DHT22;7640;53.116;6.878;2023-05-07T10:59:38;19.20;99.90
15083;DHT22;7640;53.116;6.878;2023-05-07T11:02:10;19.30;99.90
15083;DHT22;7640;53.116;6.878;2023-05-07T11:04:43;19.30;99.90
15083;DHT22;7640;53.116;6.878;2023-05-07T11:07:27;19.40;99.90
15083;DHT22;7640;53.116;6.878;2023-05-07T11:10:05;19.50;99.90
15083;DHT22;7640;53.116;6.878;2023-05-07T11:12:49;19.60;99.90
15083;DHT22;7640;53.116;6.878;2023-05-07T11:15:44;19.70;99.90
15083;DHT22;7640;53.116;6.878;2023-05-07T11:18:17;19.70;99.90
15083;DHT22;7640;53.116;6.878;2023-05-07T11:20:51;19.70;99.90
15083;DHT22;7640;53.116;6.878;2023-05-07T11:23:58;19.70;99.90
15083;DHT22;7640;53.116;6.878;2023-05-07T11:26:30;19.70;99.90
15083;DHT22;7640;53.116;6.878;2023-05-07T11:29:00;19.70;99.90
15083;DHT22;7640;53.116;6.878;2023-05-07T11:31:28;19.70;99.90
15083;DHT22;7640;53.116;6.878;2023-05-07T11:33:57;19.70;99.90
15083;DHT22;7640;53.116;6.878;2023-05-07T11:36:31;19.80;99.90
15083;DHT22;7640;53.116;6.878;2023-05-07T11:39:01;19.80;99.90
15083;DHT22;7640;53.116;6.878;2023-05-07T11:41:37;19.80;99.90
15083;DHT22;7640;53.116;6.878;2023-05-07T11:44:06;19.90;99.90
15083;DHT22;7640;53.116;6.878;2023-05-07T11:46:34;20.20;99.90
15083;DHT22;7640;53.116;6.878;2023-05-07T11:49:06;20.40;99.90
15083;DHT22;7640;53.116;6.878;2023-05-07T11:51:34;20.50;99.90
15083;DHT22;7640;53.116;6.878;2023-05-07T11:54:04;20.60;99.90
15083;DHT22;7640;53.116;6.878;2023-05-07T11:56:37;20.70;99.90
15083;DHT22;7640;53.116;6.878;2023-05-07T11:59:05;20.80;99.90
15083;DHT22;7640;53.116;6.878;2023-05-07T12:01:35;20.80;99.90
15083;DHT22;7640;53.116;6.878;2023-05-07T12:04:04;21.00;99.90
15083;DHT22;7640;53.116;6.878;2023-05-07T12:06:36;21.20;99.90
15083;DHT22;7640;53.116;6.878;2023-05-07T12:09:05;21.30;99.90
15083;DHT22;7640;53.116;6.878;2023-05-07T12:11:40;21.40;99.90
15083;DHT22;7640;53.116;6.878;2023-05-07T12:14:09;21.50;99.90
15083;DHT22;7640;53.116;6.878;2023-05-07T12:16:40;21.50;99.90
15083;DHT22;7640;53.116;6.878;2023-05-07T12:19:09;21.70;99.90
15083;DHT22;7640;53.116;6.878;2023-05-07T12:21:42;21.90;99.90
15083;DHT22;7640;53.116;6.878;2023-05-07T12:24:11;22.20;99.90
15083;DHT22;7640;53.116;6.878;2023-05-07T12:26:43;22.50;99.90
15083;DHT22;7640;53.116;6.878;2023-05-07T12:29:12;22.80;99.90
15083;DHT22;7640;53.116;6.878;2023-05-07T12:31:41;22.90;99.90
15083;DHT22;7640;53.116;6.878;2023-05-07T12:34:11;23.20;99.90
15083;DHT22;7640;53.116;6.878;2023-05-07T12:36:40;23.40;99.90
15083;DHT22;7640;53.116;6.878;2023-05-07T12:39:08;23.50;99.90
15083;DHT22;7640;53.116;6.878;2023-05-07T12:44:33;23.50;99.90
15083;DHT22;7640;53.116;6.878;2023-05-07T12:47:03;23.40;99.90
15083;DHT22;7640;53.116;6.878;2023-05-07T12:49:34;23.40;99.90
15083;DHT22;7640;53.116;6.878;2023-05-07T12:52:05;23.40;99.90
15083;DHT22;7640;53.116;6.878;2023-05-07T12:54:37;23.40;99.90
15083;DHT22;7640;53.116;6.878;2023-05-07T12:57:08;23.60;99.90
15083;DHT22;7640;53.116;6.878;2023-05-07T12:59:39;23.80;99.90
15083;DHT22;7640;53.116;6.878;2023-05-07T13:02:09;24.10;99.90
15083;DHT22;7640;53.116;6.878;2023-05-07T13:04:37;24.50;99.90
15083;DHT22;7640;53.116;6.878;2023-05-07T13:07:06;24.80;99.90
15083;DHT22;7640;53.116;6.878;2023-05-07T13:09:35;25.00;99.90
15083;DHT22;7640;53.116;6.878;2023-05-07T13:12:05;25.20;99.90
15083;DHT22;7640;53.116;6.878;2023-05-07T13:14:35;25.40;99.90
15083;DHT22;7640;53.116;6.878;2023-05-07T13:17:05;25.40;99.90
15083;DHT22;7640;53.116;6.878;2023-05-07T13:19:33;25.60;99.90
15083;DHT22;7640;53.116;6.878;2023-05-07T13:22:01;25.60;99.90
15083;DHT22;7640;53.116;6.878;2023-05-07T13:24:30;25.80;99.90
15083;DHT22;7640;53.116;6.878;2023-05-07T13:26:59;26.00;99.90
15083;DHT22;7640;53.116;6.878;2023-05-07T13:29:27;26.20;99.90
15083;DHT22;7640;53.116;6.878;2023-05-07T13:31:57;26.40;99.90
15083;DHT22;7640;53.116;6.878;2023-05-07T13:34:28;26.50;99.90
15083;DHT22;7640;53.116;6.878;2023-05-07T13:36:56;26.70;99.90
15083;DHT22;7640;53.116;6.878;2023-05-07T13:39:25;26.80;99.90
15083;DHT22;7640;53.116;6.878;2023-05-07T13:41:54;27.10;99.90
15083;DHT22;7640;53.116;6.878;2023-05-07T13:44:23;27.30;99.90
15083;DHT22;7640;53.116;6.878;2023-05-07T13:46:52;27.50;99.90
15083;DHT22;7640;53.116;6.878;2023-05-07T13:49:20;27.70;99.90
15083;DHT22;7640;53.116;6.878;2023-05-07T13:51:51;27.80;99.90
15083;DHT22;7640;53.116;6.878;2023-05-07T13:54:19;28.00;99.90
15083;DHT22;7640;53.116;6.878;2023-05-07T13:56:48;28.10;99.90
15083;DHT22;7640;53.116;6.878;2023-05-07T13:59:17;28.00;99.90
15083;DHT22;7640;53.116;6.878;2023-05-07T14:01:45;27.80;99.90
15083;DHT22;7640;53.116;6.878;2023-05-07T14:04:14;27.50;99.90
15083;DHT22;7640;53.116;6.878;2023-05-07T14:06:43;27.30;99.90
15083;DHT22;7640;53.116;6.878;2023-05-07T14:09:14;27.20;99.90
15083;DHT22;7640;53.116;6.878;2023-05-07T14:11:42;27.40;99.90
15083;DHT22;7640;53.116;6.878;2023-05-07T14:14:11;27.90;99.90
15083;DHT22;7640;53.116;6.878;2023-05-07T14:16:39;28.30;99.90
15083;DHT22;7640;53.116;6.878;2023-05-07T14:19:08;28.70;99.90
15083;DHT22;7640;53.116;6.878;2023-05-07T14:21:37;29.10;99.90
15083;DHT22;7640;53.116;6.878;2023-05-07T14:24:06;29.30;99.90
15083;DHT22;7640;53.116;6.878;2023-05-07T14:26:37;29.30;99.90
15083;DHT22;7640;53.116;6.878;2023-05-07T14:29:07;29.40;99.90
15083;DHT22;7640;53.116;6.878;2023-05-07T14:31:35;29.50;99.90
15083;DHT22;7640;53.116;6.878;2023-05-07T14:34:05;29.80;99.90
15083;DHT22;7640;53.116;6.878;2023-05-07T14:36:34;30.00;99.90
15083;DHT22;7640;53.116;6.878;2023-05-07T14:39:03;30.10;99.90
15083;DHT22;7640;53.116;6.878;2023-05-07T14:41:31;29.80;99.90
15083;DHT22;7640;53.116;6.878;2023-05-07T14:44:02;29.60;99.90
15083;DHT22;7640;53.116;6.878;2023-05-07T14:46:31;29.40;99.90
15083;DHT22;7640;53.116;6.878;2023-05-07T14:48:59;29.30;99.90
15083;DHT22;7640;53.116;6.878;2023-05-07T14:51:28;29.20;99.90
15083;DHT22;7640;53.116;6.878;2023-05-07T14:53:57;29.20;99.90
15083;DHT22;7640;53.116;6.878;2023-05-07T14:56:27;29.50;99.90
15083;DHT22;7640;53.116;6.878;2023-05-07T14:58:56;29.80;99.90
15083;DHT22;7640;53.116;6.878;2023-05-07T15:01:26;30.30;99.90
15083;DHT22;7640;53.116;6.878;2023-05-07T15:03:55;30.80;99.80
15083;DHT22;7640;53.116;6.878;2023-05-07T15:06:24;31.30;98.90
15083;DHT22;7640;53.116;6.878;2023-05-07T15:08:53;31.70;98.20
15083;DHT22;7640;53.116;6.878;2023-05-07T15:11:23;32.00;97.70
15083;DHT22;7640;53.116;6.878;2023-05-07T15:13:52;32.40;96.50
15083;DHT22;7640;53.116;6.878;2023-05-07T15:16:21;32.30;96.20
15083;DHT22;7640;53.116;6.878;2023-05-07T15:18:51;31.90;95.30
15083;DHT22;7640;53.116;6.878;2023-05-07T15:21:20;31.60;95.80
15083;DHT22;7640;53.116;6.878;2023-05-07T15:23:49;31.40;95.80
15083;DHT22;7640;53.116;6.878;2023-05-07T15:26:18;31.00;95.70
15083;DHT22;7640;53.116;6.878;2023-05-07T15:28:47;30.70;96.10
15083;DHT22;7640;53.116;6.878;2023-05-07T15:31:16;30.30;96.10
15083;DHT22;7640;53.116;6.878;2023-05-07T15:33:45;29.80;96.50
15083;DHT22;7640;53.116;6.878;2023-05-07T15:36:15;29.30;96.80
15083;DHT22;7640;53.116;6.878;2023-05-07T15:38:44;28.70;97.20
15083;DHT22;7640;53.116;6.878;2023-05-07T15:41:13;28.20;97.70
15083;DHT22;7640;53.116;6.878;2023-05-07T15:43:44;27.70;98.60
15083;DHT22;7640;53.116;6.878;2023-05-07T15:46:17;27.40;99.10
15083;DHT22;7640;53.116;6.878;2023-05-07T15:48:47;26.90;99.90
15083;DHT22;7640;53.116;6.878;2023-05-07T15:51:17;26.80;99.90
15083;DHT22;7640;53.116;6.878;2023-05-07T15:53:46;26.90;99.90
15083;DHT22;7640;53.116;6.878;2023-05-07T15:56:16;27.10;99.90
15083;DHT22;7640;53.116;6.878;2023-05-07T15:58:44;27.30;99.90
15083;DHT22;7640;53.116;6.878;2023-05-07T16:01:14;27.60;99.90
15083;DHT22;7640;53.116;6.878;2023-05-07T16:03:42;27.80;99.90
15083;DHT22;7640;53.116;6.878;2023-05-07T16:06:11;28.30;99.40